sensor_id;sensor_type;location;lat;lon;timestamp;temperature;humidity
6008;DHT22;3032;49.484;11.112;2024-03-25T00:01:14;6.30;99.90
6008;DHT22;3032;49.484;11.112;2024-03-25T00:03:39;6.20;99.90
6008;DHT22;3032;49.484;11.112;2024-03-25T00:06:05;6.30;99.90
6008;DHT22;3032;49.484;11.112;2024-03-25T00:08:31;6.30;99.90
6008;DHT22;3032;49.484;11.112;2024-03-25T00:10:57;6.30;99.90
6008;DHT22;3032;49.484;11.112;2024-03-25T00:13:23;6.20;99.90
6008;DHT22;3032;49.484;11.112;2024-03-25T00:15:48;6.30;99.90
6008;DHT22;3032;49.484;11.112;2024-03-25T00:18:14;6.30;99.90
6008;DHT22;3032;49.484;11.112;2024-03-25T00:20:39;6.30;99.90
6008;DHT22;3032;49.484;11.112;2024-03-25T00:23:05;6.20;99.90
6008;DHT22;3032;49.484;11.112;2024-03-25T00:25:30;6.20;99.90
6008;DHT22;3032;49.484;11.112;2024-03-25T00:27:56;6.20;99.90
6008;DHT22;3032;49.484;11.112;2024-03-25T00:30:23;6.30;99.90
6008;DHT22;3032;49.484;11.112;2024-03-25T00:32:49;6.30;99.90
6008;DHT22;3032;49.484;11.112;2024-03-25T00:35:15;6.30;99.90
6008;DHT22;3032;49.484;11.112;2024-03-25T00:37:40;6.20;99.90
6008;DHT22;3032;49.484;11.112;2024-03-25T00:40:06;6.20;99.90
6008;DHT22;3032;49.484;11.112;2024-03-25T00:42:32;6.20;99.90
6008;DHT22;3032;49.484;11.112;2024-03-25T00:44:58;6.20;99.90
6008;DHT22;3032;49.484;11.112;2024-03-25T00:47:24;6.30;99.90
6008;DHT22;3032;49.484;11.112;2024-03-25T00:49:49;6.30;99.90
6008;DHT22;3032;49.484;11.112;2024-03-25T00:52:15;6.30;99.90
6008;DHT22;3032;49.484;11.112;2024-03-25T00:54:41;6.30;99.90
6008;DHT22;3032;49.484;11.112;2024-03-25T00:57:07;6.40;99.90
6008;DHT22;3032;49.484;11.112;2024-03-25T00:59:33;6.30;99.90
6008;DHT22;3032;49.484;11.112;2024-03-25T01:01:59;6.50;99.90
6008;DHT22;3032;49.484;11.112;2024-03-25T01:04:24;6.40;99.90
6008;DHT22;3032;49.484;11.112;2024-03-25T01:06:50;6.30;99.90
6008;DHT22;3032;49.484;11.112;2024-03-25T01:09:15;6.20;99.90
6008;DHT22;3032;49.484;11.112;2024-03-25T01:11:41;6.30;99.90
6008;DHT22;3032;49.484;11.112;2024-03-25T01:14:07;6.20;99.90
6008;DHT22;3032;49.484;11.112;2024-03-25T01:16:32;6.30;99.90
6008;DHT22;3032;49.484;11.112;2024-03-25T01:18:58;6.40;99.90
6008;DHT22;3032;49.484;11.112;2024-03-25T01:21:24;6.40;99.90
6008;DHT22;3032;49.484;11.112;2024-03-25T01:23:50;6.50;99.90
6008;DHT22;3032;49.484;11.112;2024-03-25T01:26:15;6.50;99.90
6008;DHT22;3032;49.484;11.112;2024-03-25T01:28:42;6.50;99.90
6008;DHT22;3032;49.484;11.112;2024-03-25T01:31:07;6.30;99.90
6008;DHT22;3032;49.484;11.112;2024-03-25T01:33:33;6.30;99.90
6008;DHT22;3032;49.484;11.112;2024-03-25T01:36:00;6.40;99.90
6008;DHT22;3032;49.484;11.112;2024-03-25T01:38:26;6.30;99.90
6008;DHT22;3032;49.484;11.112;2024-03-25T01:40:51;6.20;99.90
6008;DHT22;3032;49.484;11.112;2024-03-25T01:43:17;6.20;99.90
6008;DHT22;3032;49.484;11.112;2024-03-25T01:45:44;6.50;99.90
6008;DHT22;3032;49.484;11.112;2024-03-25T01:48:10;6.60;99.90
6008;DHT22;3032;49.484;11.112;2024-03-25T01:50:40;6.70;99.90
6008;DHT22;3032;49.484;11.112;2024-03-25T01:53:07;6.40;99.90
6008;DHT22;3032;49.484;11.112;2024-03-25T01:55:35;6.60;99.90
6008;DHT22;3032;49.484;11.112;2024-03-25T01:58:01;6.60;99.90
6008;DHT22;3032;49.484;11.112;2024-03-25T02:00:28;6.50;99.90
6008;DHT22;3032;49.484;11.112;2024-03-25T02:02:54;6.50;99.90
6008;DHT22;3032;49.484;11.112;2024-03-25T02:05:20;6.60;99.90
6008;DHT22;3032;49.484;11.112;2024-03-25T02:07:46;6.50;99.90
6008;DHT22;3032;49.484;11.112;2024-03-25T02:10:12;6.70;99.90
6008;DHT22;3032;49.484;11.112;2024-03-25T02:12:44;6.60;99.90
6008;DHT22;3032;49.484;11.112;2024-03-25T02:15:12;6.70;99.90
6008;DHT22;3032;49.484;11.112;2024-03-25T02:17:38;6.60;99.90
6008;DHT22;3032;49.484;11.112;2024-03-25T02:20:05;6.60;99.90
6008;DHT22;3032;49.484;11.112;2024-03-25T02:22:32;6.60;99.90
6008;DHT22;3032;49.484;11.112;2024-03-25T02:24:59;6.70;99.90
6008;DHT22;3032;49.484;11.112;2024-03-25T02:27:25;6.70;99.90
6008;DHT22;3032;49.484;11.112;2024-03-25T02:29:53;6.80;99.90
6008;DHT22;3032;49.484;11.112;2024-03-25T02:32:19;6.80;99.90
6008;DHT22;3032;49.484;11.112;2024-03-25T02:34:48;6.80;99.90
6008;DHT22;3032;49.484;11.112;2024-03-25T02:37:14;6.70;99.90
6008;DHT22;3032;49.484;11.112;2024-03-25T02:39:41;6.80;99.90
6008;DHT22;3032;49.484;11.112;2024-03-25T02:42:06;6.80;99.90
6008;DHT22;3032;49.484;11.112;2024-03-25T02:44:33;6.70;99.90
6008;DHT22;3032;49.484;11.112;2024-03-25T02:46:59;6.50;99.90
6008;DHT22;3032;49.484;11.112;2024-03-25T02:49:24;6.40;99.90
6008;DHT22;3032;49.484;11.112;2024-03-25T02:51:50;6.40;99.90
6008;DHT22;3032;49.484;11.112;2024-03-25T02:54:16;6.50;99.90
6008;DHT22;3032;49.484;11.112;2024-03-25T02:56:43;6.50;99.90
6008;DHT22;3032;49.484;11.112;2024-03-25T02:59:09;6.80;99.90
6008;DHT22;3032;49.484;11.112;2024-03-25T03:01:34;6.60;99.90
6008;DHT22;3032;49.484;11.112;2024-03-25T03:04:00;6.70;99.90
6008;DHT22;3032;49.484;11.112;2024-03-25T03:06:25;6.80;99.90
6008;DHT22;3032;49.484;11.112;2024-03-25T03:08:51;6.90;99.90
6008;DHT22;3032;49.484;11.112;2024-03-25T03:11:16;6.90;99.90
6008;DHT22;3032;49.484;11.112;2024-03-25T03:13:42;6.80;99.90
6008;DHT22;3032;49.484;11.112;2024-03-25T03:16:08;6.90;99.90
6008;DHT22;3032;49.484;11.112;2024-03-25T03:18:33;6.90;99.90
6008;DHT22;3032;49.484;11.112;2024-03-25T03:20:59;7.10;99.90
6008;DHT22;3032;49.484;11.112;2024-03-25T03:23:24;7.10;99.90
6008;DHT22;3032;49.484;11.112;2024-03-25T03:25:50;7.20;99.90
6008;DHT22;3032;49.484;11.112;2024-03-25T03:28:16;7.20;99.90
6008;DHT22;3032;49.484;11.112;2024-03-25T03:30:42;7.00;99.90
6008;DHT22;3032;49.484;11.112;2024-03-25T03:33:08;7.10;99.90
6008;DHT22;3032;49.484;11.112;2024-03-25T03:35:34;7.30;99.90
6008;DHT22;3032;49.484;11.112;2024-03-25T03:37:59;7.20;99.90
6008;DHT22;3032;49.484;11.112;2024-03-25T03:40:25;7.20;99.90
6008;DHT22;3032;49.484;11.112;2024-03-25T03:42:50;7.20;99.90
6008;DHT22;3032;49.484;11.112;2024-03-25T03:45:16;7.10;99.90
6008;DHT22;3032;49.484;11.112;2024-03-25T03:47:41;7.10;99.90
6008;DHT22;3032;49.484;11.112;2024-03-25T03:50:07;6.90;99.90
6008;DHT22;3032;49.484;11.112;2024-03-25T03:52:33;6.90;99.90
6008;DHT22;3032;49.484;11.112;2024-03-25T03:54:59;6.90;99.90
6008;DHT22;3032;49.484;11.112;2024-03-25T03:57:25;6.90;99.90
6008;DHT22;3032;49.484;11.112;2024-03-25T03:59:51;6.90;99.90
6008;DHT22;3032;49.484;11.112;2024-03-25T04:02:17;6.90;99.90
6008;DHT22;3032;49.484;11.112;2024-03-25T04:04:43;7.10;99.90
6008;DHT22;3032;49.484;11.112;2024-03-25T04:07:08;7.50;99.90
6008;DHT22;3032;49.484;11.112;2024-03-25T04:09:34;7.50;99.90
6008;DHT22;3032;49.484;11.112;2024-03-25T04:11:59;7.40;99.90
6008;DHT22;3032;49.484;11.112;2024-03-25T04:14:26;7.00;99.90
6008;DHT22;3032;49.484;11.112;2024-03-25T04:16:52;6.80;99.90
6008;DHT22;3032;49.484;11.112;2024-03-25T04:19:19;6.80;99.90
6008;DHT22;3032;49.484;11.112;2024-03-25T04:21:45;6.70;99.90
6008;DHT22;3032;49.484;11.112;2024-03-25T04:24:10;6.80;99.90
6008;DHT22;3032;49.484;11.112;2024-03-25T04:26:36;6.80;99.90
6008;DHT22;3032;49.484;11.112;2024-03-25T04:29:01;6.90;99.90
6008;DHT22;3032;49.484;11.112;2024-03-25T04:31:27;6.90;99.90
6008;DHT22;3032;49.484;11.112;2024-03-25T04:33:52;6.90;99.90
6008;DHT22;3032;49.484;11.112;2024-03-25T04:36:18;6.50;99.90
6008;DHT22;3032;49.484;11.112;2024-03-25T04:38:43;6.20;99.90
6008;DHT22;3032;49.484;11.112;2024-03-25T04:41:09;6.40;99.90
6008;DHT22;3032;49.484;11.112;2024-03-25T04:43:34;6.30;99.90
6008;DHT22;3032;49.484;11.112;2024-03-25T04:46:03;6.10;99.90
6008;DHT22;3032;49.484;11.112;2024-03-25T04:48:28;6.10;99.90
6008;DHT22;3032;49.484;11.112;2024-03-25T04:50:55;6.10;99.90
6008;DHT22;3032;49.484;11.112;2024-03-25T04:53:20;6.30;99.90
6008;DHT22;3032;49.484;11.112;2024-03-25T04:55:46;6.30;99.90
6008;DHT22;3032;49.484;11.112;2024-03-25T04:58:11;6.10;99.90
6008;DHT22;3032;49.484;11.112;2024-03-25T05:00:37;6.20;99.90
6008;DHT22;3032;49.484;11.112;2024-03-25T05:03:03;6.50;99.90
6008;DHT22;3032;49.484;11.112;2024-03-25T05:05:29;6.50;99.90
6008;DHT22;3032;49.484;11.112;2024-03-25T05:07:55;6.30;99.90
6008;DHT22;3032;49.484;11.112;2024-03-25T05:10:21;6.40;99.90
6008;DHT22;3032;49.484;11.112;2024-03-25T05:12:46;6.40;99.90
6008;DHT22;3032;49.484;11.112;2024-03-25T05:15:14;6.30;99.90
6008;DHT22;3032;49.484;11.112;2024-03-25T05:17:40;6.40;99.90
6008;DHT22;3032;49.484;11.112;2024-03-25T05:20:06;6.60;99.90
6008;DHT22;3032;49.484;11.112;2024-03-25T05:22:32;6.80;99.90
6008;DHT22;3032;49.484;11.112;2024-03-25T05:24:57;7.10;99.90
6008;DHT22;3032;49.484;11.112;2024-03-25T05:27:23;7.20;99.90
6008;DHT22;3032;49.484;11.112;2024-03-25T05:29:51;7.20;99.90
6008;DHT22;3032;49.484;11.112;2024-03-25T05:32:17;7.30;99.90
6008;DHT22;3032;49.484;11.112;2024-03-25T05:34:45;7.10;99.90
6008;DHT22;3032;49.484;11.112;2024-03-25T05:37:10;7.00;99.90
6008;DHT22;3032;49.484;11.112;2024-03-25T05:39:36;7.00;99.90
6008;DHT22;3032;49.484;11.112;2024-03-25T05:42:02;7.30;99.90
6008;DHT22;3032;49.484;11.112;2024-03-25T05:44:27;7.30;99.90
6008;DHT22;3032;49.484;11.112;2024-03-25T05:46:53;7.30;99.90
6008;DHT22;3032;49.484;11.112;2024-03-25T05:49:18;7.20;99.90
6008;DHT22;3032;49.484;11.112;2024-03-25T05:51:44;7.30;99.90
6008;DHT22;3032;49.484;11.112;2024-03-25T05:54:09;7.30;99.90
6008;DHT22;3032;49.484;11.112;2024-03-25T05:56:35;7.30;99.90
6008;DHT22;3032;49.484;11.112;2024-03-25T05:59:00;7.30;99.90
6008;DHT22;3032;49.484;11.112;2024-03-25T06:01:26;7.60;99.90
6008;DHT22;3032;49.484;11.112;2024-03-25T06:03:52;7.90;99.90
6008;DHT22;3032;49.484;11.112;2024-03-25T06:06:18;8.00;99.90
6008;DHT22;3032;49.484;11.112;2024-03-25T06:08:44;8.00;99.90
6008;DHT22;3032;49.484;11.112;2024-03-25T06:11:10;7.80;99.90
6008;DHT22;3032;49.484;11.112;2024-03-25T06:13:35;7.90;99.90
6008;DHT22;3032;49.484;11.112;2024-03-25T06:16:01;8.10;99.90
6008;DHT22;3032;49.484;11.112;2024-03-25T06:18:26;8.10;99.90
6008;DHT22;3032;49.484;11.112;2024-03-25T06:20:52;8.30;99.90
6008;DHT22;3032;49.484;11.112;2024-03-25T06:23:28;8.90;99.90
6008;DHT22;3032;49.484;11.112;2024-03-25T06:25:55;10.00;99.90
6008;DHT22;3032;49.484;11.112;2024-03-25T06:28:21;11.60;99.90
6008;DHT22;3032;49.484;11.112;2024-03-25T06:30:48;13.00;99.90
6008;DHT22;3032;49.484;11.112;2024-03-25T06:33:32;14.10;97.80
6008;DHT22;3032;49.484;11.112;2024-03-25T06:36:17;15.90;94.40
6008;DHT22;3032;49.484;11.112;2024-03-25T06:38:43;17.60;90.90
6008;DHT22;3032;49.484;11.112;2024-03-25T06:41:09;18.90;84.90
6008;DHT22;3032;49.484;11.112;2024-03-25T06:43:36;19.40;77.80
6008;DHT22;3032;49.484;11.112;2024-03-25T06:46:03;20.00;76.50
6008;DHT22;3032;49.484;11.112;2024-03-25T06:48:29;20.20;71.50
6008;DHT22;3032;49.484;11.112;2024-03-25T06:50:56;19.10;71.70
6008;DHT22;3032;49.484;11.112;2024-03-25T06:53:21;17.10;72.40
6008;DHT22;3032;49.484;11.112;2024-03-25T06:55:59;14.80;76.10
6008;DHT22;3032;49.484;11.112;2024-03-25T06:58:26;13.40;80.40
6008;DHT22;3032;49.484;11.112;2024-03-25T07:00:54;13.20;83.60
6008;DHT22;3032;49.484;11.112;2024-03-25T07:03:21;12.70;84.70
6008;DHT22;3032;49.484;11.112;2024-03-25T07:05:48;12.30;86.50
6008;DHT22;3032;49.484;11.112;2024-03-25T07:08:14;11.60;88.60
6008;DHT22;3032;49.484;11.112;2024-03-25T07:10:44;10.50;90.80
6008;DHT22;3032;49.484;11.112;2024-03-25T07:13:10;9.90;93.70
6008;DHT22;3032;49.484;11.112;2024-03-25T07:15:35;9.60;94.40
6008;DHT22;3032;49.484;11.112;2024-03-25T07:18:01;9.70;95.20
6008;DHT22;3032;49.484;11.112;2024-03-25T07:20:27;9.70;96.30
6008;DHT22;3032;49.484;11.112;2024-03-25T07:22:53;10.20;95.60
6008;DHT22;3032;49.484;11.112;2024-03-25T07:25:22;10.50;94.20
6008;DHT22;3032;49.484;11.112;2024-03-25T07:27:48;10.80;95.00
6008;DHT22;3032;49.484;11.112;2024-03-25T07:30:14;12.90;92.40
6008;DHT22;3032;49.484;11.112;2024-03-25T07:32:40;13.70;89.70
6008;DHT22;3032;49.484;11.112;2024-03-25T07:35:06;14.40;90.60
6008;DHT22;3032;49.484;11.112;2024-03-25T07:37:33;14.40;86.40
6008;DHT22;3032;49.484;11.112;2024-03-25T07:39:59;14.00;87.40
6008;DHT22;3032;49.484;11.112;2024-03-25T07:42:25;13.70;86.80
6008;DHT22;3032;49.484;11.112;2024-03-25T07:44:50;13.40;86.70
6008;DHT22;3032;49.484;11.112;2024-03-25T07:47:16;13.90;86.10
6008;DHT22;3032;49.484;11.112;2024-03-25T07:49:41;14.60;88.10
6008;DHT22;3032;49.484;11.112;2024-03-25T07:52:07;15.00;84.70
6008;DHT22;3032;49.484;11.112;2024-03-25T07:54:32;15.30;83.20
6008;DHT22;3032;49.484;11.112;2024-03-25T07:56:58;15.00;81.30
6008;DHT22;3032;49.484;11.112;2024-03-25T07:59:24;15.00;82.40
6008;DHT22;3032;49.484;11.112;2024-03-25T08:01:49;14.80;79.60
6008;DHT22;3032;49.484;11.112;2024-03-25T08:04:15;14.20;82.10
6008;DHT22;3032;49.484;11.112;2024-03-25T08:06:41;15.20;83.20
6008;DHT22;3032;49.484;11.112;2024-03-25T08:09:06;18.10;77.80
6008;DHT22;3032;49.484;11.112;2024-03-25T08:11:32;20.50;71.30
6008;DHT22;3032;49.484;11.112;2024-03-25T08:13:58;23.00;64.50
6008;DHT22;3032;49.484;11.112;2024-03-25T08:16:23;24.70;59.40
6008;DHT22;3032;49.484;11.112;2024-03-25T08:18:49;24.70;51.70
6008;DHT22;3032;49.484;11.112;2024-03-25T08:21:15;24.70;51.10
6008;DHT22;3032;49.484;11.112;2024-03-25T08:23:41;24.60;51.40
6008;DHT22;3032;49.484;11.112;2024-03-25T08:26:07;24.00;49.60
6008;DHT22;3032;49.484;11.112;2024-03-25T08:28:34;23.60;49.90
6008;DHT22;3032;49.484;11.112;2024-03-25T08:30:59;23.80;50.60
6008;DHT22;3032;49.484;11.112;2024-03-25T08:33:25;23.70;49.10
6008;DHT22;3032;49.484;11.112;2024-03-25T08:35:50;24.40;49.00
6008;DHT22;3032;49.484;11.112;2024-03-25T08:38:16;25.00;47.40
6008;DHT22;3032;49.484;11.112;2024-03-25T08:40:41;25.60;45.60
6008;DHT22;3032;49.484;11.112;2024-03-25T08:43:07;26.30;46.30
6008;DHT22;3032;49.484;11.112;2024-03-25T08:45:33;26.70;45.10
6008;DHT22;3032;49.484;11.112;2024-03-25T08:47:58;28.10;44.10
6008;DHT22;3032;49.484;11.112;2024-03-25T08:50:24;27.70;40.40
6008;DHT22;3032;49.484;11.112;2024-03-25T08:52:49;26.00;40.20
6008;DHT22;3032;49.484;11.112;2024-03-25T08:55:15;25.50;42.20
6008;DHT22;3032;49.484;11.112;2024-03-25T08:57:41;25.10;40.10
6008;DHT22;3032;49.484;11.112;2024-03-25T09:00:07;23.70;41.70
6008;DHT22;3032;49.484;11.112;2024-03-25T09:02:38;22.20;42.90
6008;DHT22;3032;49.484;11.112;2024-03-25T09:05:04;21.60;44.60
6008;DHT22;3032;49.484;11.112;2024-03-25T09:07:33;22.80;45.90
6008;DHT22;3032;49.484;11.112;2024-03-25T09:09:59;24.20;45.20
6008;DHT22;3032;49.484;11.112;2024-03-25T09:12:43;25.80;42.50
6008;DHT22;3032;49.484;11.112;2024-03-25T09:15:09;24.10;41.70
6008;DHT22;3032;49.484;11.112;2024-03-25T09:17:35;23.30;41.10
6008;DHT22;3032;49.484;11.112;2024-03-25T09:20:01;20.60;41.90
6008;DHT22;3032;49.484;11.112;2024-03-25T09:22:29;18.50;44.60
6008;DHT22;3032;49.484;11.112;2024-03-25T09:24:55;17.60;47.90
6008;DHT22;3032;49.484;11.112;2024-03-25T09:27:20;18.00;49.30
6008;DHT22;3032;49.484;11.112;2024-03-25T09:29:46;18.20;48.50
6008;DHT22;3032;49.484;11.112;2024-03-25T09:32:11;20.10;48.30
6008;DHT22;3032;49.484;11.112;2024-03-25T09:34:38;22.30;44.70
6008;DHT22;3032;49.484;11.112;2024-03-25T09:37:03;21.10;44.10
6008;DHT22;3032;49.484;11.112;2024-03-25T09:39:29;20.60;44.30
6008;DHT22;3032;49.484;11.112;2024-03-25T09:41:55;19.30;42.20
6008;DHT22;3032;49.484;11.112;2024-03-25T09:44:24;17.50;43.10
6008;DHT22;3032;49.484;11.112;2024-03-25T09:46:51;16.20;45.10
6008;DHT22;3032;49.484;11.112;2024-03-25T09:49:17;15.40;46.50
6008;DHT22;3032;49.484;11.112;2024-03-25T09:51:42;14.40;48.80
6008;DHT22;3032;49.484;11.112;2024-03-25T09:54:08;13.60;50.80
6008;DHT22;3032;49.484;11.112;2024-03-25T09:56:34;13.50;55.10
6008;DHT22;3032;49.484;11.112;2024-03-25T09:59:00;13.60;56.50
6008;DHT22;3032;49.484;11.112;2024-03-25T10:01:26;13.60;56.90
6008;DHT22;3032;49.484;11.112;2024-03-25T10:03:52;13.80;56.90
6008;DHT22;3032;49.484;11.112;2024-03-25T10:06:17;13.80;57.80
6008;DHT22;3032;49.484;11.112;2024-03-25T10:08:45;14.10;58.40
6008;DHT22;3032;49.484;11.112;2024-03-25T10:11:10;15.00;58.40
6008;DHT22;3032;49.484;11.112;2024-03-25T10:13:36;16.90;56.50
6008;DHT22;3032;49.484;11.112;2024-03-25T10:16:02;19.30;53.40
6008;DHT22;3032;49.484;11.112;2024-03-25T10:18:28;20.00;49.20
6008;DHT22;3032;49.484;11.112;2024-03-25T10:20:54;19.80;49.20
6008;DHT22;3032;49.484;11.112;2024-03-25T10:23:21;19.10;49.70
6008;DHT22;3032;49.484;11.112;2024-03-25T10:25:48;18.80;50.30
6008;DHT22;3032;49.484;11.112;2024-03-25T10:28:14;18.20;50.60
6008;DHT22;3032;49.484;11.112;2024-03-25T10:30:40;17.90;51.80
6008;DHT22;3032;49.484;11.112;2024-03-25T10:33:07;18.60;52.80
6008;DHT22;3032;49.484;11.112;2024-03-25T10:35:37;18.50;51.60
6008;DHT22;3032;49.484;11.112;2024-03-25T10:38:14;18.30;51.20
6008;DHT22;3032;49.484;11.112;2024-03-25T10:40:42;17.70;50.10
6008;DHT22;3032;49.484;11.112;2024-03-25T10:43:10;16.40;50.70
6008;DHT22;3032;49.484;11.112;2024-03-25T10:45:47;15.90;52.70
6008;DHT22;3032;49.484;11.112;2024-03-25T10:48:20;15.40;52.90
6008;DHT22;3032;49.484;11.112;2024-03-25T10:50:47;15.20;52.60
6008;DHT22;3032;49.484;11.112;2024-03-25T10:53:17;15.10;53.90
6008;DHT22;3032;49.484;11.112;2024-03-25T10:55:45;15.70;53.60
6008;DHT22;3032;49.484;11.112;2024-03-25T10:58:15;15.70;49.50
6008;DHT22;3032;49.484;11.112;2024-03-25T11:00:41;15.70;50.10
6008;DHT22;3032;49.484;11.112;2024-03-25T11:03:07;15.60;51.20
6008;DHT22;3032;49.484;11.112;2024-03-25T11:05:34;16.40;48.50
6008;DHT22;3032;49.484;11.112;2024-03-25T11:08:10;17.30;47.90
6008;DHT22;3032;49.484;11.112;2024-03-25T11:10:40;18.90;47.30
6008;DHT22;3032;49.484;11.112;2024-03-25T11:13:13;20.60;43.80
6008;DHT22;3032;49.484;11.112;2024-03-25T11:15:44;20.80;42.90
6008;DHT22;3032;49.484;11.112;2024-03-25T11:18:17;20.20;44.90
6008;DHT22;3032;49.484;11.112;2024-03-25T11:20:44;19.50;46.70
6008;DHT22;3032;49.484;11.112;2024-03-25T11:23:11;19.30;47.00
6008;DHT22;3032;49.484;11.112;2024-03-25T11:25:38;19.00;47.90
6008;DHT22;3032;49.484;11.112;2024-03-25T11:28:04;18.70;48.00
6008;DHT22;3032;49.484;11.112;2024-03-25T11:30:29;18.10;48.50
6008;DHT22;3032;49.484;11.112;2024-03-25T11:32:57;17.70;48.90
6008;DHT22;3032;49.484;11.112;2024-03-25T11:35:24;17.80;48.50
6008;DHT22;3032;49.484;11.112;2024-03-25T11:37:50;18.00;49.30
6008;DHT22;3032;49.484;11.112;2024-03-25T11:40:17;18.30;47.80
6008;DHT22;3032;49.484;11.112;2024-03-25T11:42:44;19.20;48.20
6008;DHT22;3032;49.484;11.112;2024-03-25T11:45:19;19.40;47.80
6008;DHT22;3032;49.484;11.112;2024-03-25T11:47:46;20.20;45.00
6008;DHT22;3032;49.484;11.112;2024-03-25T11:50:14;19.70;45.40
6008;DHT22;3032;49.484;11.112;2024-03-25T11:52:41;20.20;44.80
6008;DHT22;3032;49.484;11.112;2024-03-25T11:55:07;20.70;45.10
6008;DHT22;3032;49.484;11.112;2024-03-25T11:57:38;20.50;44.60
6008;DHT22;3032;49.484;11.112;2024-03-25T12:00:04;21.10;45.50
6008;DHT22;3032;49.484;11.112;2024-03-25T12:02:36;21.10;42.30
6008;DHT22;3032;49.484;11.112;2024-03-25T12:05:03;20.30;43.50
6008;DHT22;3032;49.484;11.112;2024-03-25T12:07:29;20.20;43.50
6008;DHT22;3032;49.484;11.112;2024-03-25T12:09:54;19.20;43.80
6008;DHT22;3032;49.484;11.112;2024-03-25T12:12:38;18.90;42.70
6008;DHT22;3032;49.484;11.112;2024-03-25T12:15:05;18.30;43.50
6008;DHT22;3032;49.484;11.112;2024-03-25T12:17:33;18.00;43.70
6008;DHT22;3032;49.484;11.112;2024-03-25T12:20:03;18.20;43.50
6008;DHT22;3032;49.484;11.112;2024-03-25T12:22:31;18.20;44.10
6008;DHT22;3032;49.484;11.112;2024-03-25T12:24:58;18.40;45.60
6008;DHT22;3032;49.484;11.112;2024-03-25T12:27:24;18.60;42.40
6008;DHT22;3032;49.484;11.112;2024-03-25T12:30:00;18.90;42.50
6008;DHT22;3032;49.484;11.112;2024-03-25T12:32:38;18.50;44.40
6008;DHT22;3032;49.484;11.112;2024-03-25T12:35:08;18.30;43.30
6008;DHT22;3032;49.484;11.112;2024-03-25T12:37:36;18.00;44.10
6008;DHT22;3032;49.484;11.112;2024-03-25T12:40:03;18.40;40.60
6008;DHT22;3032;49.484;11.112;2024-03-25T12:42:30;18.80;40.40
6008;DHT22;3032;49.484;11.112;2024-03-25T12:44:55;19.10;40.10
6008;DHT22;3032;49.484;11.112;2024-03-25T12:47:21;18.80;39.80
6008;DHT22;3032;49.484;11.112;2024-03-25T12:49:47;18.90;41.80
6008;DHT22;3032;49.484;11.112;2024-03-25T12:52:12;19.00;42.80
6008;DHT22;3032;49.484;11.112;2024-03-25T12:54:38;19.40;40.90
6008;DHT22;3032;49.484;11.112;2024-03-25T12:57:05;19.70;40.40
6008;DHT22;3032;49.484;11.112;2024-03-25T12:59:30;19.80;38.30
6008;DHT22;3032;49.484;11.112;2024-03-25T13:01:56;19.10;38.70
6008;DHT22;3032;49.484;11.112;2024-03-25T13:04:21;18.70;37.20
6008;DHT22;3032;49.484;11.112;2024-03-25T13:06:47;17.80;37.70
6008;DHT22;3032;49.484;11.112;2024-03-25T13:09:12;17.40;42.00
6008;DHT22;3032;49.484;11.112;2024-03-25T13:11:38;17.20;42.80
6008;DHT22;3032;49.484;11.112;2024-03-25T13:14:04;18.00;44.10
6008;DHT22;3032;49.484;11.112;2024-03-25T13:16:35;18.50;42.50
6008;DHT22;3032;49.484;11.112;2024-03-25T13:19:00;19.20;42.60
6008;DHT22;3032;49.484;11.112;2024-03-25T13:21:26;19.40;41.20
6008;DHT22;3032;49.484;11.112;2024-03-25T13:23:54;19.80;40.80
6008;DHT22;3032;49.484;11.112;2024-03-25T13:26:20;20.60;40.60
6008;DHT22;3032;49.484;11.112;2024-03-25T13:28:45;20.40;37.20
6008;DHT22;3032;49.484;11.112;2024-03-25T13:31:11;20.00;38.50
6008;DHT22;3032;49.484;11.112;2024-03-25T13:33:38;20.20;40.20
6008;DHT22;3032;49.484;11.112;2024-03-25T13:36:05;20.40;39.30
6008;DHT22;3032;49.484;11.112;2024-03-25T13:38:31;21.00;40.80
6008;DHT22;3032;49.484;11.112;2024-03-25T13:40:57;21.00;37.60
6008;DHT22;3032;49.484;11.112;2024-03-25T13:43:23;20.80;38.80
6008;DHT22;3032;49.484;11.112;2024-03-25T13:45:49;21.30;39.20
6008;DHT22;3032;49.484;11.112;2024-03-25T13:48:15;20.60;36.60
6008;DHT22;3032;49.484;11.112;2024-03-25T13:50:41;20.40;38.50
6008;DHT22;3032;49.484;11.112;2024-03-25T13:53:08;20.50;39.40
6008;DHT22;3032;49.484;11.112;2024-03-25T13:55:33;20.80;38.40
6008;DHT22;3032;49.484;11.112;2024-03-25T13:57:59;20.90;36.00
6008;DHT22;3032;49.484;11.112;2024-03-25T14:00:24;20.20;38.10
6008;DHT22;3032;49.484;11.112;2024-03-25T14:02:52;20.50;38.60
6008;DHT22;3032;49.484;11.112;2024-03-25T14:05:18;20.80;38.40
6008;DHT22;3032;49.484;11.112;2024-03-25T14:07:43;20.80;37.80
6008;DHT22;3032;49.484;11.112;2024-03-25T14:10:09;20.90;38.10
6008;DHT22;3032;49.484;11.112;2024-03-25T14:12:36;20.50;37.60
6008;DHT22;3032;49.484;11.112;2024-03-25T14:15:02;20.20;38.50
6008;DHT22;3032;49.484;11.112;2024-03-25T14:17:28;20.20;38.80
6008;DHT22;3032;49.484;11.112;2024-03-25T14:19:56;20.20;37.40
6008;DHT22;3032;49.484;11.112;2024-03-25T14:22:21;19.90;37.60
6008;DHT22;3032;49.484;11.112;2024-03-25T14:24:47;19.50;38.90
6008;DHT22;3032;49.484;11.112;2024-03-25T14:27:13;19.90;39.10
6008;DHT22;3032;49.484;11.112;2024-03-25T14:29:38;20.20;37.40
6008;DHT22;3032;49.484;11.112;2024-03-25T14:32:04;20.80;38.80
6008;DHT22;3032;49.484;11.112;2024-03-25T14:34:29;21.30;38.40
6008;DHT22;3032;49.484;11.112;2024-03-25T14:36:55;20.60;35.70
6008;DHT22;3032;49.484;11.112;2024-03-25T14:39:22;19.60;35.70
6008;DHT22;3032;49.484;11.112;2024-03-25T14:41:48;18.40;36.20
6008;DHT22;3032;49.484;11.112;2024-03-25T14:44:14;17.60;37.10
6008;DHT22;3032;49.484;11.112;2024-03-25T14:46:39;17.20;38.50
6008;DHT22;3032;49.484;11.112;2024-03-25T14:49:05;16.20;40.90
6008;DHT22;3032;49.484;11.112;2024-03-25T14:51:30;16.30;41.50
6008;DHT22;3032;49.484;11.112;2024-03-25T14:53:56;16.00;40.20
6008;DHT22;3032;49.484;11.112;2024-03-25T14:56:21;15.50;40.00
6008;DHT22;3032;49.484;11.112;2024-03-25T14:58:47;15.80;39.20
6008;DHT22;3032;49.484;11.112;2024-03-25T15:01:12;16.00;39.30
6008;DHT22;3032;49.484;11.112;2024-03-25T15:03:38;16.70;38.90
6008;DHT22;3032;49.484;11.112;2024-03-25T15:06:04;16.90;38.00
6008;DHT22;3032;49.484;11.112;2024-03-25T15:08:31;16.50;37.70
6008;DHT22;3032;49.484;11.112;2024-03-25T15:10:57;16.10;38.00
6008;DHT22;3032;49.484;11.112;2024-03-25T15:13:22;15.40;39.20
6008;DHT22;3032;49.484;11.112;2024-03-25T15:15:48;15.80;39.20
6008;DHT22;3032;49.484;11.112;2024-03-25T15:18:14;16.40;39.10
6008;DHT22;3032;49.484;11.112;2024-03-25T15:20:39;16.80;39.20
6008;DHT22;3032;49.484;11.112;2024-03-25T15:23:05;16.30;38.30
6008;DHT22;3032;49.484;11.112;2024-03-25T15:25:32;16.10;39.00
6008;DHT22;3032;49.484;11.112;2024-03-25T15:27:57;16.20;40.10
6008;DHT22;3032;49.484;11.112;2024-03-25T15:30:23;15.60;40.20
6008;DHT22;3032;49.484;11.112;2024-03-25T15:32:49;15.70;40.40
6008;DHT22;3032;49.484;11.112;2024-03-25T15:35:15;15.70;40.50
6008;DHT22;3032;49.484;11.112;2024-03-25T15:37:41;15.40;41.20
6008;DHT22;3032;49.484;11.112;2024-03-25T15:40:07;14.90;40.00
6008;DHT22;3032;49.484;11.112;2024-03-25T15:42:34;14.40;39.20
6008;DHT22;3032;49.484;11.112;2024-03-25T15:45:00;13.60;40.50
6008;DHT22;3032;49.484;11.112;2024-03-25T15:47:26;13.20;40.60